sensor_id;sensor_type;location;lat;lon;timestamp;temperature;humidity
18624;DHT22;9441;51.420;7.036;2022-10-31T00:00:26;15.90;99.90
18624;DHT22;9441;51.420;7.036;2022-10-31T00:01:29;15.90;99.90
18624;DHT22;9441;51.420;7.036;2022-10-31T00:02:31;15.80;99.90
18624;DHT22;9441;51.420;7.036;2022-10-31T00:03:32;15.70;99.90
18624;DHT22;9441;51.420;7.036;2022-10-31T00:04:36;15.70;99.90
18624;DHT22;9441;51.420;7.036;2022-10-31T00:05:40;15.70;99.90
18624;DHT22;9441;51.420;7.036;2022-10-31T00:06:42;15.80;99.90
18624;DHT22;9441;51.420;7.036;2022-10-31T00:07:43;15.80;99.90
18624;DHT22;9441;51.420;7.036;2022-10-31T00:08:45;15.80;99.90
18624;DHT22;9441;51.420;7.036;2022-10-31T00:09:46;15.90;99.90
18624;DHT22;9441;51.420;7.036;2022-10-31T00:10:48;15.90;99.90
18624;DHT22;9441;51.420;7.036;2022-10-31T00:11:49;15.90;99.90
18624;DHT22;9441;51.420;7.036;2022-10-31T00:12:52;15.90;99.90
18624;DHT22;9441;51.420;7.036;2022-10-31T00:13:53;15.80;99.90
18624;DHT22;9441;51.420;7.036;2022-10-31T00:14:55;15.80;99.90
18624;DHT22;9441;51.420;7.036;2022-10-31T00:15:56;15.90;99.90
18624;DHT22;9441;51.420;7.036;2022-10-31T00:16:58;15.90;99.90
18624;DHT22;9441;51.420;7.036;2022-10-31T00:17:59;15.90;99.90
18624;DHT22;9441;51.420;7.036;2022-10-31T00:19:03;15.90;99.90
18624;DHT22;9441;51.420;7.036;2022-10-31T00:20:07;15.80;99.90
18624;DHT22;9441;51.420;7.036;2022-10-31T00:21:09;15.90;99.90
18624;DHT22;9441;51.420;7.036;2022-10-31T00:22:10;15.80;99.90
18624;DHT22;9441;51.420;7.036;2022-10-31T00:23:12;15.80;99.90
18624;DHT22;9441;51.420;7.036;2022-10-31T00:24:14;15.80;99.90
18624;DHT22;9441;51.420;7.036;2022-10-31T00:25:16;15.90;99.90
18624;DHT22;9441;51.420;7.036;2022-10-31T00:26:17;15.80;99.90
18624;DHT22;9441;51.420;7.036;2022-10-31T00:27:19;15.80;99.90
18624;DHT22;9441;51.420;7.036;2022-10-31T00:28:20;15.80;99.90
18624;DHT22;9441;51.420;7.036;2022-10-31T00:29:23;15.80;99.90
18624;DHT22;9441;51.420;7.036;2022-10-31T00:30:25;15.60;99.90
18624;DHT22;9441;51.420;7.036;2022-10-31T00:31:26;15.70;99.90
18624;DHT22;9441;51.420;7.036;2022-10-31T00:32:28;15.70;99.90
18624;DHT22;9441;51.420;7.036;2022-10-31T00:33:30;15.70;99.90
18624;DHT22;9441;51.420;7.036;2022-10-31T00:34:34;15.70;99.90
18624;DHT22;9441;51.420;7.036;2022-10-31T00:35:37;15.50;99.90
18624;DHT22;9441;51.420;7.036;2022-10-31T00:36:39;15.60;99.90
18624;DHT22;9441;51.420;7.036;2022-10-31T00:37:39;15.60;99.90
18624;DHT22;9441;51.420;7.036;2022-10-31T00:38:42;15.60;99.90
18624;DHT22;9441;51.420;7.036;2022-10-31T00:39:43;15.60;99.90
18624;DHT22;9441;51.420;7.036;2022-10-31T00:40:46;15.60;99.90
18624;DHT22;9441;51.420;7.036;2022-10-31T00:41:47;15.60;99.90
18624;DHT22;9441;51.420;7.036;2022-10-31T00:42:49;15.60;99.90
18624;DHT22;9441;51.420;7.036;2022-10-31T00:43:50;15.60;99.90
18624;DHT22;9441;51.420;7.036;2022-10-31T00:44:52;15.50;99.90
18624;DHT22;9441;51.420;7.036;2022-10-31T00:45:54;15.40;99.90
18624;DHT22;9441;51.420;7.036;2022-10-31T00:46:59;15.40;99.90
18624;DHT22;9441;51.420;7.036;2022-10-31T00:48:00;15.50;99.90
18624;DHT22;9441;51.420;7.036;2022-10-31T00:49:02;15.50;99.90
18624;DHT22;9441;51.420;7.036;2022-10-31T00:50:03;15.40;99.90
18624;DHT22;9441;51.420;7.036;2022-10-31T00:51:07;15.30;99.90
18624;DHT22;9441;51.420;7.036;2022-10-31T00:52:08;15.40;99.90
18624;DHT22;9441;51.420;7.036;2022-10-31T00:53:10;15.50;99.90
18624;DHT22;9441;51.420;7.036;2022-10-31T00:54:11;15.40;99.90
18624;DHT22;9441;51.420;7.036;2022-10-31T00:55:13;15.40;99.90
18624;DHT22;9441;51.420;7.036;2022-10-31T00:56:15;15.50;99.90
18624;DHT22;9441;51.420;7.036;2022-10-31T00:57:17;15.60;99.90
18624;DHT22;9441;51.420;7.036;2022-10-31T00:58:18;15.60;99.90
18624;DHT22;9441;51.420;7.036;2022-10-31T00:59:20;15.60;99.90
18624;DHT22;9441;51.420;7.036;2022-10-31T01:00:21;15.50;99.90
18624;DHT22;9441;51.420;7.036;2022-10-31T01:01:23;15.50;99.90
18624;DHT22;9441;51.420;7.036;2022-10-31T01:02:24;15.60;99.90
18624;DHT22;9441;51.420;7.036;2022-10-31T01:03:28;15.60;99.90
18624;DHT22;9441;51.420;7.036;2022-10-31T01:04:29;15.50;99.90
18624;DHT22;9441;51.420;7.036;2022-10-31T01:05:31;15.50;99.90
18624;DHT22;9441;51.420;7.036;2022-10-31T01:06:34;15.60;99.90
18624;DHT22;9441;51.420;7.036;2022-10-31T01:07:36;15.60;99.90
18624;DHT22;9441;51.420;7.036;2022-10-31T01:08:38;15.60;99.90
18624;DHT22;9441;51.420;7.036;2022-10-31T01:09:41;15.60;99.90
18624;DHT22;9441;51.420;7.036;2022-10-31T01:10:42;15.50;99.90
18624;DHT22;9441;51.420;7.036;2022-10-31T01:11:44;15.40;99.90
18624;DHT22;9441;51.420;7.036;2022-10-31T01:12:48;15.40;99.90
18624;DHT22;9441;51.420;7.036;2022-10-31T01:13:50;15.30;99.90
18624;DHT22;9441;51.420;7.036;2022-10-31T01:14:53;15.40;99.90
18624;DHT22;9441;51.420;7.036;2022-10-31T01:15:54;15.50;99.90
18624;DHT22;9441;51.420;7.036;2022-10-31T01:16:56;15.50;99.90
18624;DHT22;9441;51.420;7.036;2022-10-31T01:17:57;15.60;99.90
18624;DHT22;9441;51.420;7.036;2022-10-31T01:18:59;15.60;99.90
18624;DHT22;9441;51.420;7.036;2022-10-31T01:20:02;15.50;99.90
18624;DHT22;9441;51.420;7.036;2022-10-31T01:21:08;15.40;99.90
18624;DHT22;9441;51.420;7.036;2022-10-31T01:22:10;15.50;99.90
18624;DHT22;9441;51.420;7.036;2022-10-31T01:23:12;15.60;99.90
18624;DHT22;9441;51.420;7.036;2022-10-31T01:24:15;15.60;99.90
18624;DHT22;9441;51.420;7.036;2022-10-31T01:25:17;15.50;99.90
18624;DHT22;9441;51.420;7.036;2022-10-31T01:26:20;15.60;99.90
18624;DHT22;9441;51.420;7.036;2022-10-31T01:27:23;15.50;99.90
18624;DHT22;9441;51.420;7.036;2022-10-31T01:28:24;15.60;99.90
18624;DHT22;9441;51.420;7.036;2022-10-31T01:29:26;15.60;99.90
18624;DHT22;9441;51.420;7.036;2022-10-31T01:30:27;15.60;99.90
18624;DHT22;9441;51.420;7.036;2022-10-31T01:31:30;15.60;99.90
18624;DHT22;9441;51.420;7.036;2022-10-31T01:32:32;15.60;99.90
18624;DHT22;9441;51.420;7.036;2022-10-31T01:33:35;15.60;99.90
18624;DHT22;9441;51.420;7.036;2022-10-31T01:34:36;15.70;99.90
18624;DHT22;9441;51.420;7.036;2022-10-31T01:35:38;15.70;99.90
18624;DHT22;9441;51.420;7.036;2022-10-31T01:36:39;15.70;99.90
18624;DHT22;9441;51.420;7.036;2022-10-31T01:37:43;15.70;99.90
18624;DHT22;9441;51.420;7.036;2022-10-31T01:38:44;15.70;99.90
18624;DHT22;9441;51.420;7.036;2022-10-31T01:39:48;15.80;99.90
18624;DHT22;9441;51.420;7.036;2022-10-31T01:40:49;15.80;99.90
18624;DHT22;9441;51.420;7.036;2022-10-31T01:41:53;15.80;99.90
18624;DHT22;9441;51.420;7.036;2022-10-31T01:42:54;15.80;99.90
18624;DHT22;9441;51.420;7.036;2022-10-31T01:43:58;15.80;99.90
18624;DHT22;9441;51.420;7.036;2022-10-31T01:45:00;15.70;99.90
18624;DHT22;9441;51.420;7.036;2022-10-31T01:46:03;15.80;99.90
18624;DHT22;9441;51.420;7.036;2022-10-31T01:47:06;15.80;99.90
18624;DHT22;9441;51.420;7.036;2022-10-31T01:48:12;15.80;99.90
18624;DHT22;9441;51.420;7.036;2022-10-31T01:49:16;15.80;99.90
18624;DHT22;9441;51.420;7.036;2022-10-31T01:50:27;15.80;99.90
18624;DHT22;9441;51.420;7.036;2022-10-31T01:51:32;15.90;99.90
18624;DHT22;9441;51.420;7.036;2022-10-31T01:52:37;15.90;99.90
18624;DHT22;9441;51.420;7.036;2022-10-31T01:53:41;15.80;99.90
18624;DHT22;9441;51.420;7.036;2022-10-31T01:54:48;15.90;99.90
18624;DHT22;9441;51.420;7.036;2022-10-31T01:55:51;15.80;99.90
18624;DHT22;9441;51.420;7.036;2022-10-31T01:56:54;15.80;99.90
18624;DHT22;9441;51.420;7.036;2022-10-31T01:58:00;15.70;99.90
18624;DHT22;9441;51.420;7.036;2022-10-31T01:59:08;15.70;99.90
18624;DHT22;9441;51.420;7.036;2022-10-31T02:00:12;15.70;99.90
18624;DHT22;9441;51.420;7.036;2022-10-31T02:01:16;15.80;99.90
18624;DHT22;9441;51.420;7.036;2022-10-31T02:02:19;15.80;99.90
18624;DHT22;9441;51.420;7.036;2022-10-31T02:03:20;15.80;99.90
18624;DHT22;9441;51.420;7.036;2022-10-31T02:04:25;15.90;99.90
18624;DHT22;9441;51.420;7.036;2022-10-31T02:05:29;15.90;99.90
18624;DHT22;9441;51.420;7.036;2022-10-31T02:06:35;15.80;99.90
18624;DHT22;9441;51.420;7.036;2022-10-31T02:07:40;15.80;99.90
18624;DHT22;9441;51.420;7.036;2022-10-31T02:08:46;15.80;99.90
18624;DHT22;9441;51.420;7.036;2022-10-31T02:09:47;15.80;99.90
18624;DHT22;9441;51.420;7.036;2022-10-31T02:10:52;15.80;99.90
18624;DHT22;9441;51.420;7.036;2022-10-31T02:11:55;15.70;99.90
18624;DHT22;9441;51.420;7.036;2022-10-31T02:13:01;15.60;99.90
18624;DHT22;9441;51.420;7.036;2022-10-31T02:14:03;15.60;99.90
18624;DHT22;9441;51.420;7.036;2022-10-31T02:15:06;15.50;99.90
18624;DHT22;9441;51.420;7.036;2022-10-31T02:16:09;15.30;99.90
18624;DHT22;9441;51.420;7.036;2022-10-31T02:17:12;15.30;99.90
18624;DHT22;9441;51.420;7.036;2022-10-31T02:18:14;15.20;99.90
18624;DHT22;9441;51.420;7.036;2022-10-31T02:19:21;15.10;99.90
18624;DHT22;9441;51.420;7.036;2022-10-31T02:20:27;15.10;99.90
18624;DHT22;9441;51.420;7.036;2022-10-31T02:21:39;15.10;99.90
18624;DHT22;9441;51.420;7.036;2022-10-31T02:23:00;15.20;99.90
18624;DHT22;9441;51.420;7.036;2022-10-31T02:24:40;15.30;99.90
18624;DHT22;9441;51.420;7.036;2022-10-31T02:25:56;15.40;99.90
18624;DHT22;9441;51.420;7.036;2022-10-31T02:27:11;15.30;99.90
18624;DHT22;9441;51.420;7.036;2022-10-31T02:28:30;15.20;99.90
18624;DHT22;9441;51.420;7.036;2022-10-31T02:30:02;15.20;99.90
18624;DHT22;9441;51.420;7.036;2022-10-31T02:31:22;15.20;99.90
18624;DHT22;9441;51.420;7.036;2022-10-31T02:32:27;15.30;99.90
18624;DHT22;9441;51.420;7.036;2022-10-31T02:33:35;15.30;99.90
18624;DHT22;9441;51.420;7.036;2022-10-31T02:34:45;15.20;99.90
18624;DHT22;9441;51.420;7.036;2022-10-31T02:35:57;15.00;99.90
18624;DHT22;9441;51.420;7.036;2022-10-31T02:37:06;14.90;99.90
18624;DHT22;9441;51.420;7.036;2022-10-31T02:38:18;15.00;99.90
18624;DHT22;9441;51.420;7.036;2022-10-31T02:39:25;15.00;99.90
18624;DHT22;9441;51.420;7.036;2022-10-31T02:40:34;15.10;99.90
18624;DHT22;9441;51.420;7.036;2022-10-31T02:42:03;15.10;99.90
18624;DHT22;9441;51.420;7.036;2022-10-31T02:43:12;15.20;99.90
18624;DHT22;9441;51.420;7.036;2022-10-31T02:44:20;15.30;99.90
18624;DHT22;9441;51.420;7.036;2022-10-31T02:45:27;15.40;99.90
18624;DHT22;9441;51.420;7.036;2022-10-31T02:46:35;15.40;99.90
18624;DHT22;9441;51.420;7.036;2022-10-31T02:47:42;15.40;99.90
18624;DHT22;9441;51.420;7.036;2022-10-31T02:48:44;15.40;99.90
18624;DHT22;9441;51.420;7.036;2022-10-31T02:49:53;15.40;99.90
18624;DHT22;9441;51.420;7.036;2022-10-31T02:50:57;15.40;99.90
18624;DHT22;9441;51.420;7.036;2022-10-31T02:52:00;15.40;99.90
18624;DHT22;9441;51.420;7.036;2022-10-31T02:53:01;15.40;99.90
18624;DHT22;9441;51.420;7.036;2022-10-31T02:54:05;15.40;99.90
18624;DHT22;9441;51.420;7.036;2022-10-31T02:55:11;15.30;99.90
18624;DHT22;9441;51.420;7.036;2022-10-31T02:56:16;15.30;99.90
18624;DHT22;9441;51.420;7.036;2022-10-31T02:57:22;15.40;99.90
18624;DHT22;9441;51.420;7.036;2022-10-31T02:58:30;15.40;99.90
18624;DHT22;9441;51.420;7.036;2022-10-31T02:59:33;15.40;99.90
18624;DHT22;9441;51.420;7.036;2022-10-31T03:00:42;15.50;99.90
18624;DHT22;9441;51.420;7.036;2022-10-31T03:02:09;15.50;99.90
18624;DHT22;9441;51.420;7.036;2022-10-31T03:03:19;15.40;99.90
18624;DHT22;9441;51.420;7.036;2022-10-31T03:04:39;15.40;99.90
18624;DHT22;9441;51.420;7.036;2022-10-31T03:05:52;15.30;99.90
18624;DHT22;9441;51.420;7.036;2022-10-31T03:07:11;15.30;99.90
18624;DHT22;9441;51.420;7.036;2022-10-31T03:08:22;15.30;99.90
18624;DHT22;9441;51.420;7.036;2022-10-31T03:09:28;15.30;99.90
18624;DHT22;9441;51.420;7.036;2022-10-31T03:10:35;15.40;99.90
18624;DHT22;9441;51.420;7.036;2022-10-31T03:11:50;15.30;99.90
18624;DHT22;9441;51.420;7.036;2022-10-31T03:12:58;15.30;99.90
18624;DHT22;9441;51.420;7.036;2022-10-31T03:14:09;15.20;99.90
18624;DHT22;9441;51.420;7.036;2022-10-31T03:15:16;15.20;99.90
18624;DHT22;9441;51.420;7.036;2022-10-31T03:16:25;15.20;99.90
18624;DHT22;9441;51.420;7.036;2022-10-31T03:17:33;15.20;99.90
18624;DHT22;9441;51.420;7.036;2022-10-31T03:18:40;15.20;99.90
18624;DHT22;9441;51.420;7.036;2022-10-31T03:19:43;15.30;99.90
18624;DHT22;9441;51.420;7.036;2022-10-31T03:20:51;15.30;99.90
18624;DHT22;9441;51.420;7.036;2022-10-31T03:21:58;15.20;99.90
18624;DHT22;9441;51.420;7.036;2022-10-31T03:23:02;15.20;99.90
18624;DHT22;9441;51.420;7.036;2022-10-31T03:24:05;15.10;99.90
18624;DHT22;9441;51.420;7.036;2022-10-31T03:25:09;15.10;99.90
18624;DHT22;9441;51.420;7.036;2022-10-31T03:26:13;15.20;99.90
18624;DHT22;9441;51.420;7.036;2022-10-31T03:27:20;15.20;99.90
18624;DHT22;9441;51.420;7.036;2022-10-31T03:28:28;15.10;99.90
18624;DHT22;9441;51.420;7.036;2022-10-31T03:29:35;15.00;99.90
18624;DHT22;9441;51.420;7.036;2022-10-31T03:30:40;14.90;99.90
18624;DHT22;9441;51.420;7.036;2022-10-31T03:31:47;14.90;99.90
18624;DHT22;9441;51.420;7.036;2022-10-31T03:32:52;14.80;99.90
18624;DHT22;9441;51.420;7.036;2022-10-31T03:33:58;14.80;99.90
18624;DHT22;9441;51.420;7.036;2022-10-31T03:35:06;14.80;99.90
18624;DHT22;9441;51.420;7.036;2022-10-31T03:36:10;14.80;99.90
18624;DHT22;9441;51.420;7.036;2022-10-31T03:37:15;14.90;99.90
18624;DHT22;9441;51.420;7.036;2022-10-31T03:38:19;15.00;99.90
18624;DHT22;9441;51.420;7.036;2022-10-31T03:39:22;15.00;99.90
18624;DHT22;9441;51.420;7.036;2022-10-31T03:40:26;15.00;99.90
18624;DHT22;9441;51.420;7.036;2022-10-31T03:41:30;15.00;99.90
18624;DHT22;9441;51.420;7.036;2022-10-31T03:42:36;15.00;99.90
18624;DHT22;9441;51.420;7.036;2022-10-31T03:43:44;14.90;99.90
18624;DHT22;9441;51.420;7.036;2022-10-31T03:44:51;14.90;99.90
18624;DHT22;9441;51.420;7.036;2022-10-31T03:45:55;14.80;99.90
18624;DHT22;9441;51.420;7.036;2022-10-31T03:46:57;14.70;99.90
18624;DHT22;9441;51.420;7.036;2022-10-31T03:48:00;14.70;99.90
18624;DHT22;9441;51.420;7.036;2022-10-31T03:49:03;14.70;99.90
18624;DHT22;9441;51.420;7.036;2022-10-31T03:50:06;14.70;99.90
18624;DHT22;9441;51.420;7.036;2022-10-31T03:51:14;14.70;99.90
18624;DHT22;9441;51.420;7.036;2022-10-31T03:52:22;14.70;99.90
18624;DHT22;9441;51.420;7.036;2022-10-31T03:53:30;14.50;99.90
18624;DHT22;9441;51.420;7.036;2022-10-31T03:54:37;14.50;99.90
18624;DHT22;9441;51.420;7.036;2022-10-31T03:55:47;14.40;99.90
18624;DHT22;9441;51.420;7.036;2022-10-31T03:56:54;14.30;99.90
18624;DHT22;9441;51.420;7.036;2022-10-31T03:58:00;14.30;99.90
18624;DHT22;9441;51.420;7.036;2022-10-31T03:59:06;14.20;99.90
18624;DHT22;9441;51.420;7.036;2022-10-31T04:00:12;14.30;99.90
18624;DHT22;9441;51.420;7.036;2022-10-31T04:01:20;14.40;99.90
18624;DHT22;9441;51.420;7.036;2022-10-31T04:02:27;14.50;99.90
18624;DHT22;9441;51.420;7.036;2022-10-31T04:03:33;14.50;99.90
18624;DHT22;9441;51.420;7.036;2022-10-31T04:04:37;14.50;99.90
18624;DHT22;9441;51.420;7.036;2022-10-31T04:05:41;14.50;99.90
18624;DHT22;9441;51.420;7.036;2022-10-31T04:06:46;14.50;99.90
18624;DHT22;9441;51.420;7.036;2022-10-31T04:07:52;14.60;99.90
18624;DHT22;9441;51.420;7.036;2022-10-31T04:08:58;14.60;99.90
18624;DHT22;9441;51.420;7.036;2022-10-31T04:10:05;14.60;99.90
18624;DHT22;9441;51.420;7.036;2022-10-31T04:11:09;14.60;99.90
18624;DHT22;9441;51.420;7.036;2022-10-31T04:12:16;14.60;99.90
18624;DHT22;9441;51.420;7.036;2022-10-31T04:13:30;14.60;99.90
18624;DHT22;9441;51.420;7.036;2022-10-31T04:14:47;14.60;99.90
18624;DHT22;9441;51.420;7.036;2022-10-31T04:15:52;14.40;99.90
18624;DHT22;9441;51.420;7.036;2022-10-31T04:16:57;14.40;99.90
18624;DHT22;9441;51.420;7.036;2022-10-31T04:18:07;14.40;99.90
18624;DHT22;9441;51.420;7.036;2022-10-31T04:19:12;14.40;99.90
18624;DHT22;9441;51.420;7.036;2022-10-31T04:20:16;14.50;99.90
18624;DHT22;9441;51.420;7.036;2022-10-31T04:21:17;14.50;99.90
18624;DHT22;9441;51.420;7.036;2022-10-31T04:22:19;14.50;99.90
18624;DHT22;9441;51.420;7.036;2022-10-31T04:23:23;14.50;99.90
18624;DHT22;9441;51.420;7.036;2022-10-31T04:24:26;14.50;99.90
18624;DHT22;9441;51.420;7.036;2022-10-31T04:25:27;14.50;99.90
18624;DHT22;9441;51.420;7.036;2022-10-31T04:26:29;14.50;99.90
18624;DHT22;9441;51.420;7.036;2022-10-31T04:27:30;14.50;99.90
18624;DHT22;9441;51.420;7.036;2022-10-31T04:28:32;14.50;99.90
18624;DHT22;9441;51.420;7.036;2022-10-31T04:29:34;14.50;99.90
18624;DHT22;9441;51.420;7.036;2022-10-31T04:30:36;14.40;99.90
18624;DHT22;9441;51.420;7.036;2022-10-31T04:31:38;14.40;99.90
18624;DHT22;9441;51.420;7.036;2022-10-31T04:32:40;14.40;99.90
18624;DHT22;9441;51.420;7.036;2022-10-31T04:33:41;14.30;99.90
18624;DHT22;9441;51.420;7.036;2022-10-31T04:34:45;14.30;99.90
18624;DHT22;9441;51.420;7.036;2022-10-31T04:35:46;14.30;99.90
18624;DHT22;9441;51.420;7.036;2022-10-31T04:36:48;14.20;99.90
18624;DHT22;9441;51.420;7.036;2022-10-31T04:37:51;14.20;99.90
18624;DHT22;9441;51.420;7.036;2022-10-31T04:38:53;14.20;99.90
18624;DHT22;9441;51.420;7.036;2022-10-31T04:40:11;14.20;99.90
18624;DHT22;9441;51.420;7.036;2022-10-31T04:41:32;14.00;99.90
18624;DHT22;9441;51.420;7.036;2022-10-31T04:42:36;14.00;99.90
18624;DHT22;9441;51.420;7.036;2022-10-31T04:43:39;14.00;99.90
18624;DHT22;9441;51.420;7.036;2022-10-31T04:44:41;14.00;99.90
18624;DHT22;9441;51.420;7.036;2022-10-31T04:45:42;13.90;99.90
18624;DHT22;9441;51.420;7.036;2022-10-31T04:46:45;13.90;99.90
18624;DHT22;9441;51.420;7.036;2022-10-31T04:47:46;14.00;99.90
18624;DHT22;9441;51.420;7.036;2022-10-31T04:48:48;14.10;99.90
18624;DHT22;9441;51.420;7.036;2022-10-31T04:49:52;14.10;99.90
18624;DHT22;9441;51.420;7.036;2022-10-31T04:50:58;14.10;99.90
18624;DHT22;9441;51.420;7.036;2022-10-31T04:52:00;14.10;99.90
18624;DHT22;9441;51.420;7.036;2022-10-31T04:53:02;14.10;99.90
18624;DHT22;9441;51.420;7.036;2022-10-31T04:54:08;14.10;99.90
18624;DHT22;9441;51.420;7.036;2022-10-31T04:55:29;14.10;99.90
18624;DHT22;9441;51.420;7.036;2022-10-31T04:56:55;14.10;99.90
18624;DHT22;9441;51.420;7.036;2022-10-31T04:57:57;14.10;99.90
18624;DHT22;9441;51.420;7.036;2022-10-31T04:59:00;14.00;99.90
18624;DHT22;9441;51.420;7.036;2022-10-31T05:00:08;14.10;99.90
18624;DHT22;9441;51.420;7.036;2022-10-31T05:01:11;14.10;99.90
18624;DHT22;9441;51.420;7.036;2022-10-31T05:02:12;14.10;99.90
18624;DHT22;9441;51.420;7.036;2022-10-31T05:03:22;14.10;99.90
18624;DHT22;9441;51.420;7.036;2022-10-31T05:04:23;14.10;99.90
18624;DHT22;9441;51.420;7.036;2022-10-31T05:05:28;14.10;99.90
18624;DHT22;9441;51.420;7.036;2022-10-31T05:06:30;14.20;99.90
18624;DHT22;9441;51.420;7.036;2022-10-31T05:07:32;14.10;99.90
18624;DHT22;9441;51.420;7.036;2022-10-31T05:08:33;14.10;99.90
18624;DHT22;9441;51.420;7.036;2022-10-31T05:09:38;14.10;99.90
18624;DHT22;9441;51.420;7.036;2022-10-31T05:10:39;14.00;99.90
18624;DHT22;9441;51.420;7.036;2022-10-31T05:11:42;13.90;99.90
18624;DHT22;9441;51.420;7.036;2022-10-31T05:13:05;13.90;99.90
18624;DHT22;9441;51.420;7.036;2022-10-31T05:14:25;13.90;99.90
18624;DHT22;9441;51.420;7.036;2022-10-31T05:15:44;13.90;99.90
18624;DHT22;9441;51.420;7.036;2022-10-31T05:17:05;14.10;99.90
18624;DHT22;9441;51.420;7.036;2022-10-31T05:18:38;14.10;99.90
18624;DHT22;9441;51.420;7.036;2022-10-31T05:20:06;14.10;99.90
18624;DHT22;9441;51.420;7.036;2022-10-31T05:21:29;14.20;99.90
18624;DHT22;9441;51.420;7.036;2022-10-31T05:22:34;14.20;99.90
18624;DHT22;9441;51.420;7.036;2022-10-31T05:23:36;14.20;99.90
18624;DHT22;9441;51.420;7.036;2022-10-31T05:24:40;14.20;99.90
18624;DHT22;9441;51.420;7.036;2022-10-31T05:25:44;14.10;99.90
18624;DHT22;9441;51.420;7.036;2022-10-31T05:26:46;14.00;99.90
18624;DHT22;9441;51.420;7.036;2022-10-31T05:27:49;14.00;99.90
18624;DHT22;9441;51.420;7.036;2022-10-31T05:28:52;14.00;99.90
18624;DHT22;9441;51.420;7.036;2022-10-31T05:29:53;13.90;99.90
18624;DHT22;9441;51.420;7.036;2022-10-31T05:30:55;13.70;99.90
18624;DHT22;9441;51.420;7.036;2022-10-31T05:31:56;13.70;99.90
18624;DHT22;9441;51.420;7.036;2022-10-31T05:33:33;13.70;99.90
18624;DHT22;9441;51.420;7.036;2022-10-31T05:34:53;13.70;99.90
18624;DHT22;9441;51.420;7.036;2022-10-31T05:36:18;13.70;99.90
18624;DHT22;9441;51.420;7.036;2022-10-31T05:37:28;13.80;99.90
18624;DHT22;9441;51.420;7.036;2022-10-31T05:38:30;13.90;99.90
18624;DHT22;9441;51.420;7.036;2022-10-31T05:39:37;13.90;99.90
18624;DHT22;9441;51.420;7.036;2022-10-31T05:40:45;14.00;99.90
18624;DHT22;9441;51.420;7.036;2022-10-31T05:41:47;14.00;99.90
18624;DHT22;9441;51.420;7.036;2022-10-31T05:42:55;14.00;99.90
18624;DHT22;9441;51.420;7.036;2022-10-31T05:43:58;14.00;99.90
18624;DHT22;9441;51.420;7.036;2022-10-31T05:45:04;14.10;99.90
18624;DHT22;9441;51.420;7.036;2022-10-31T05:46:17;14.10;99.90
18624;DHT22;9441;51.420;7.036;2022-10-31T05:47:37;14.10;99.90
18624;DHT22;9441;51.420;7.036;2022-10-31T05:49:08;14.10;99.90
18624;DHT22;9441;51.420;7.036;2022-10-31T05:50:30;14.00;99.90
18624;DHT22;9441;51.420;7.036;2022-10-31T05:51:45;13.90;99.90
18624;DHT22;9441;51.420;7.036;2022-10-31T05:52:54;13.70;99.90
18624;DHT22;9441;51.420;7.036;2022-10-31T05:54:10;13.60;99.90
18624;DHT22;9441;51.420;7.036;2022-10-31T05:55:13;13.70;99.90
18624;DHT22;9441;51.420;7.036;2022-10-31T05:56:24;13.60;99.90
18624;DHT22;9441;51.420;7.036;2022-10-31T05:57:25;13.70;99.90
18624;DHT22;9441;51.420;7.036;2022-10-31T05:58:27;13.70;99.90
18624;DHT22;9441;51.420;7.036;2022-10-31T05:59:39;13.80;99.90
18624;DHT22;9441;51.420;7.036;2022-10-31T06:00:40;13.90;99.90
18624;DHT22;9441;51.420;7.036;2022-10-31T06:01:44;13.90;99.90
18624;DHT22;9441;51.420;7.036;2022-10-31T06:03:02;14.00;99.90
18624;DHT22;9441;51.420;7.036;2022-10-31T06:04:16;14.00;99.90
18624;DHT22;9441;51.420;7.036;2022-10-31T06:05:17;14.10;99.90
18624;DHT22;9441;51.420;7.036;2022-10-31T06:06:20;14.10;99.90
18624;DHT22;9441;51.420;7.036;2022-10-31T06:07:23;14.10;99.90
18624;DHT22;9441;51.420;7.036;2022-10-31T06:08:25;14.10;99.90
18624;DHT22;9441;51.420;7.036;2022-10-31T06:09:29;14.00;99.90
18624;DHT22;9441;51.420;7.036;2022-10-31T06:10:30;13.90;99.90
18624;DHT22;9441;51.420;7.036;2022-10-31T06:11:32;13.80;99.90
18624;DHT22;9441;51.420;7.036;2022-10-31T06:12:36;13.90;99.90
18624;DHT22;9441;51.420;7.036;2022-10-31T06:13:50;13.90;99.90
18624;DHT22;9441;51.420;7.036;2022-10-31T06:15:05;13.90;99.90
18624;DHT22;9441;51.420;7.036;2022-10-31T06:16:07;13.90;99.90
18624;DHT22;9441;51.420;7.036;2022-10-31T06:17:11;13.90;99.90
18624;DHT22;9441;51.420;7.036;2022-10-31T06:18:12;14.00;99.90
18624;DHT22;9441;51.420;7.036;2022-10-31T06:19:22;14.00;99.90
18624;DHT22;9441;51.420;7.036;2022-10-31T06:20:23;14.00;99.90
18624;DHT22;9441;51.420;7.036;2022-10-31T06:21:36;13.90;99.90
18624;DHT22;9441;51.420;7.036;2022-10-31T06:22:37;13.90;99.90
18624;DHT22;9441;51.420;7.036;2022-10-31T06:23:41;13.80;99.90
18624;DHT22;9441;51.420;7.036;2022-10-31T06:24:59;13.70;99.90
18624;DHT22;9441;51.420;7.036;2022-10-31T06:26:04;13.50;99.90
18624;DHT22;9441;51.420;7.036;2022-10-31T06:27:05;13.50;99.90
18624;DHT22;9441;51.420;7.036;2022-10-31T06:28:07;13.40;99.90
18624;DHT22;9441;51.420;7.036;2022-10-31T06:29:30;13.40;99.90
18624;DHT22;9441;51.420;7.036;2022-10-31T06:30:38;13.40;99.90
18624;DHT22;9441;51.420;7.036;2022-10-31T06:31:39;13.70;99.90
18624;DHT22;9441;51.420;7.036;2022-10-31T06:32:41;13.70;99.90
18624;DHT22;9441;51.420;7.036;2022-10-31T06:33:44;13.80;99.90
18624;DHT22;9441;51.420;7.036;2022-10-31T06:34:46;13.80;99.90
18624;DHT22;9441;51.420;7.036;2022-10-31T06:35:48;13.90;99.90
18624;DHT22;9441;51.420;7.036;2022-10-31T06:36:52;14.00;99.90
18624;DHT22;9441;51.420;7.036;2022-10-31T06:37:57;13.90;99.90
18624;DHT22;9441;51.420;7.036;2022-10-31T06:39:09;14.00;99.90
18624;DHT22;9441;51.420;7.036;2022-10-31T06:40:11;13.90;99.90
18624;DHT22;9441;51.420;7.036;2022-10-31T06:41:32;14.00;99.90
18624;DHT22;9441;51.420;7.036;2022-10-31T06:42:35;13.90;99.90
18624;DHT22;9441;51.420;7.036;2022-10-31T06:43:36;14.00;99.90
18624;DHT22;9441;51.420;7.036;2022-10-31T06:44:54;14.00;99.90
18624;DHT22;9441;51.420;7.036;2022-10-31T06:46:05;14.10;99.90
18624;DHT22;9441;51.420;7.036;2022-10-31T06:47:14;14.10;99.90
18624;DHT22;9441;51.420;7.036;2022-10-31T06:48:31;14.10;99.90
18624;DHT22;9441;51.420;7.036;2022-10-31T06:49:51;14.10;99.90
18624;DHT22;9441;51.420;7.036;2022-10-31T06:50:57;14.00;99.90
18624;DHT22;9441;51.420;7.036;2022-10-31T06:51:59;14.00;99.90
18624;DHT22;9441;51.420;7.036;2022-10-31T06:53:01;14.00;99.90
18624;DHT22;9441;51.420;7.036;2022-10-31T06:54:02;13.90;99.90
18624;DHT22;9441;51.420;7.036;2022-10-31T06:55:07;13.80;99.90
18624;DHT22;9441;51.420;7.036;2022-10-31T06:56:08;13.70;99.90
18624;DHT22;9441;51.420;7.036;2022-10-31T06:57:15;13.70;99.90
18624;DHT22;9441;51.420;7.036;2022-10-31T06:58:17;13.80;99.90
18624;DHT22;9441;51.420;7.036;2022-10-31T06:59:20;13.80;99.90
18624;DHT22;9441;51.420;7.036;2022-10-31T07:00:40;13.80;99.90
18624;DHT22;9441;51.420;7.036;2022-10-31T07:01:42;13.80;99.90
18624;DHT22;9441;51.420;7.036;2022-10-31T07:02:53;13.90;99.90